Disclaimer

Please do not use the information listed here in-flight or in-navigation, as they are not provided to us by the airports but are provided by volunteers, so they might be outdated.

Search


Regions


Airport information page

Radio informations:
Automatic Terminal Information Service (ATIS) - 117.5 MHz
INFO - 118.4 MHz

Airport informations:
Latitude: 35° 46' 33.94" N
Longitude: 050° 49' 36.07" E
Elevation: 4170 feet - 1271 meters
Operating hours: Remarks
Operating agency: Civil government, landing fees and diplomatic clearance may be required
Timezone: UTC+3:30
Fuel: Jet A1, without icing nhibitor.

Runway information:
12/30 - 12005 x 197 feet< - >3659 x 60 meters

Recent METARs:
OIIP 121800Z 00000KT 2000 BR SCT035 OVC090 08/07 Q1023
OIIP 121800Z 00000KT 2000 BR SCT035 OVC090 08/07 Q1023
OIIP 121800Z 00000KT 2000 BR SCT035 OVC090 08/07 Q1023

Airport on the map: